x

South Hatteras - 225 South Of Cape Hatteras (41002) Wave Buoy

1:50 - Wed 28th Sep 2016 All times are EDT. -4 hours from GMT.

  • Sig Wave height 4.3ft
  • Swell Direction
  • Peak Period 7s
  • Average Period 5s
  • Wind
    16mph, 18mph gusts
  • Sea Temp 83°f
  • Aire Temp 82°f
  • Sea Pressure 1012.9mb
  • South Hatteras - 225 South Of Cape Hatteras
  • South Hatteras - 225 South Of Cape Hatteras

More Historic Weather Station data

Upgrade to MSW Pro to gain access to the past 30 days of data for over 8000 Wavebouys and Weather Stations around the globe.

Join Pro

Comparision Forecast

View Surf forecast
   
mié 09/28 1:50 4.5ft 7s 5s 16 18 mph 1012.9mb 83f 82f
12:50 5ft 7s 6s 16 20 mph 1012.8mb 83f 82f
mar 09/27 11:50 4.5ft 12s 6s 16 20 mph 1012.8mb 83f 82f
10:50 5ft 12s 6s 16 18 mph 1012.7mb 83f 81f
9:50 4.5ft 7s 6s 13 16 mph 1012.3mb 83f 82f
8:50 4.5ft 7s 6s 13 18 mph 1012mb 83f 81f
7:50 5ft 12s 6s 13 16 mph 1011.5mb 83f 81f
6:50 5ft 7s 6s 13 18 mph 1011.5mb 83f 81f
5:50 5.5ft 6s 6s 11 16 mph 1011.2mb 83f 81f
4:50 5ft 12s 6s 9 13 mph 1011.3mb 83f 80f
3:50 5.5ft 7s 6s 9 11 mph 1011.7mb 83f 80f
2:50 6ft 6s 6s 11 13 mph 1011.8mb 83f 79f
1:50 5.5ft 6s 6s 11 13 mph 1012.5mb 83f 80f
12:50 5.5ft 6s 6s 16 29 mph 1013mb 83f 78f
11:50 6ft 7s 6s 11 16 mph 1013.5mb 83f 80f
10:50 6ft 6s 5s 16 18 mph 1013.9mb 83f 80f
9:50 6ft 6s 5s 16 22 mph 1013.9mb 83f 79f
8:50 6ft 6s 5s 18 22 mph 1014mb 83f 78f
7:50 6ft 6s 5s 27 31 mph 1013.4mb 83f 77f
6:50 5.5ft 6s 5s 22 31 mph 1013.3mb 83f 76f
5:50 5ft 5s 5s 18 22 mph 1012.8mb 83f 81f
4:50 5.5ft 5s 5s 20 22 mph 1013.3mb 83f 82f
3:50 5ft 5s 5s 20 22 mph 1013.4mb 83f 81f
2:50 4.5ft 6s 5s 18 22 mph 1014.3mb 83f 81f
1:50 5ft 5s 5s 22 27 mph 1014.8mb 83f 81f
12:50 5ft 7s 5s 20 22 mph 1015.5mb 83f 81f
lun 09/26 11:50 5ft 8s 5s 16 18 mph 1016.4mb 83f 81f
10:50 5ft 5s 5s 16 18 mph 1016.7mb 83f 80f
9:50 5ft 8s 5s 18 22 mph 1016.7mb 83f 79f
8:50 5ft 6s 5s 18 20 mph 1016.4mb 83f 78f
7:50 5ft 9s 5s 16 18 mph 1016mb 83f 76f
6:50 5ft 5s 5s 22 27 mph 1016.2mb 83f 79f
5:50 5.5ft 8s 5s 20 22 mph 1016.5mb 83f 79f
4:50 5ft 8s 5s 18 20 mph 1016.4mb 83f 79f
3:50 5.5ft 8s 5s 20 22 mph 1016.2mb 83f 80f
2:50 6ft 9s 5s 20 27 mph 1016.2mb 83f 80f
1:50 5.5ft 9s 5s 22 27 mph 1016.8mb 84f 79f
12:50 5.5ft 7s 5s 22 27 mph 1017.1mb 84f 80f
11:50 5.5ft 6s 5s 20 25 mph 1017.5mb 84f 80f
10:50 4.5ft 8s 5s 20 25 mph 1017.5mb 84f 79f
9:50 4ft 8s 5s 16 18 mph 1017.6mb 84f 80f
8:50 4ft 8s 6s 16 18 mph 1017mb 84f 80f
7:50 4ft 8s 6s 11 13 mph 1017.1mb 84f 81f
6:50 4.5ft 8s 6s 11 13 mph 1016.8mb 84f 81f
5:50 4.5ft 9s 6s 11 13 mph 1016.5mb 84f 81f
4:50 4.5ft 8s 6s 9 11 mph 1016mb 84f 80f
3:50 5ft 8s 6s 11 13 mph 1016.3mb 83f 80f
2:50 4.5ft 8s 6s 11
mph
1016.9mb 83f 81f
1:50 4ft 10s 5s 13
mph
1017.2mb 83f 81f
12:50 4ft 5s 5s 16 18 mph 1017mb 83f 81f
dom 09/25 11:50 3.5ft 9s 5s 16 18 mph 1017.1mb 83f 81f
10:50 3.5ft 9s 5s 13 16 mph 1017.7mb 83f 82f
9:50 3.5ft 9s 5s 13 18 mph 1017.7mb 83f 82f
8:50 3.5ft 10s 5s 18 20 mph 1017mb 83f 82f
7:50 3ft 8s 5s 16 18 mph 1016.6mb 83f 82f
6:50 3.5ft 10s 6s 13 16 mph 1016.3mb 83f 82f
5:50 3.5ft 9s 6s 13 16 mph 1016.1mb 84f 82f
4:50 3.5ft 10s 6s 13 16 mph 1016.1mb 84f 82f
3:50 3.5ft 9s 6s 13 16 mph 1016.2mb 84f 82f
2:50 3.5ft 9s 6s 13
mph
1016.2mb 84f 82f
1:50 4ft 10s 6s 11 13 mph 1016.7mb 84f 82f
12:50 3.5ft 10s 6s 11 13 mph 1017.2mb 84f 82f
11:50 3.5ft 10s 6s 11 13 mph 1017.3mb 84f 82f
10:50 3.5ft 10s 7s 11 16 mph 1017.2mb 84f 82f
9:50 3.5ft 10s 7s 9 11 mph 1017.3mb 83f 82f
8:50 4ft 10s 8s 9
mph
1017mb 83f 82f
7:50 3.5ft 11s 7s 7
mph
1016.9mb 83f 82f
6:50 3.5ft 10s 8s 7
mph
1016.2mb 83f 81f
5:50 3.5ft 10s 8s 4 7 mph 1015.5mb 83f 81f
4:50 3.5ft 11s 8s 4 7 mph 1015.2mb 84f 81f
3:50 4ft 10s 8s 4 7 mph 1015mb 84f 81f
2:50 3.5ft 11s 8s 4 7 mph 1015.4mb 84f 81f
1:50 4ft 11s 8s 4 7 mph 1015.7mb 84f 81f
12:50 4.5ft 10s 8s 4 7 mph 1015.8mb 84f 82f
sáb 09/24 11:50 4.5ft 11s 8s 4 7 mph 1016.1mb 84f 82f
10:50 4.5ft 11s 8s 4
mph
1016.2mb 84f 82f
9:50 4ft 11s 8s 4 7 mph 1016.1mb 84f 82f
8:50 4.5ft 11s 8s 4 7 mph 1015.9mb 84f 82f
7:50 4.5ft 11s 8s 7 9 mph 1015.3mb 83f 82f
6:50 4.5ft 11s 7s 4 7 mph 1015mb 83f 82f
5:50 4ft 10s 7s 9
mph
1014.8mb 84f 83f
4:50 4.5ft 10s 7s 9 11 mph 1014.5mb 83f 83f
3:50 4.5ft 9s 7s 9 11 mph 1014.8mb 83f 82f
2:50 4ft 10s 7s 9 13 mph 1015.1mb 83f 83f
1:50 4.5ft 10s 7s 11 13 mph 1015.6mb 83f 83f
12:50 4.5ft 11s 8s 11 13 mph 1016.2mb 83f 82f
11:50 4.5ft 11s 8s 9 11 mph 1016.4mb 83f 82f
10:50 4.5ft 10s 8s 7 11 mph 1016.2mb 83f 82f
9:50 4.5ft 10s 8s 9 11 mph 1016.3mb 83f 82f
8:50 5ft 11s 8s 7 9 mph 1016.2mb 83f 82f
7:50 4.5ft 10s 8s 9 11 mph 1016.1mb 83f 81f